SXS6FT EDDL-LTAJ
Flight info
| Callsign | SXS6FT |
|---|---|
| Flight time | N/A |
| Altitude | 37000 |
| Route | KUMIK5Z KUMIK Y854 BOMBI DCT DETEV DCT DINKU DCT BESNI DCT LATLO DCT OBEDI DCT BEDOX DCT TUVAR DCT ETIDA DCT ADORU DCT TOKER DCT BAG UL605 RATSI UA17 BOYAT |
| Aircraft | B738/M-SDE2E3FGHIRWXY/LB1 |
Departure
| Time | N/A |
|---|---|
| Airport | Düsseldorf Airport (EDDL) |
Arrival
| Time | 2026-04-22 20:59 |
|---|---|
| Airport | Gaziantep Oğuzeli International Airport (LTAJ) |
| Time | Latitude | Longitude | Altitude | Speed | Heading |
|---|---|---|---|---|---|
| 2026-04-22 20:09 | 40.15283 | 32.14950 | 36969 ft | 510 kts | 101° |
| 2026-04-22 20:10 | 40.14722 | 32.19525 | 36988 ft | 509 kts | 101° |
| 2026-04-22 20:10 | 40.13594 | 32.28675 | 36988 ft | 510 kts | 101° |
| 2026-04-22 20:11 | 40.12458 | 32.37822 | 36971 ft | 509 kts | 101° |
| 2026-04-22 20:11 | 40.11326 | 32.46895 | 36981 ft | 509 kts | 101° |
| 2026-04-22 20:12 | 40.10179 | 32.56018 | 36969 ft | 508 kts | 101° |
| 2026-04-22 20:12 | 40.09221 | 32.63593 | 36957 ft | 507 kts | 101° |
| 2026-04-22 20:13 | 40.07861 | 32.74189 | 36972 ft | 505 kts | 104° |
| 2026-04-22 20:13 | 40.05493 | 32.82697 | 36976 ft | 495 kts | 123° |
| 2026-04-22 20:14 | 40.01587 | 32.89890 | 36968 ft | 486 kts | 135° |
| 2026-04-22 20:14 | 39.97238 | 32.96647 | 36957 ft | 486 kts | 135° |
| 2026-04-22 20:15 | 39.92906 | 33.03422 | 36967 ft | 488 kts | 135° |
| 2026-04-22 20:15 | 39.88578 | 33.10261 | 36962 ft | 490 kts | 135° |
| 2026-04-22 20:16 | 39.84238 | 33.17134 | 36948 ft | 493 kts | 134° |
| 2026-04-22 20:16 | 39.79872 | 33.24032 | 36949 ft | 494 kts | 134° |
| 2026-04-22 20:17 | 39.76234 | 33.29767 | 36945 ft | 495 kts | 135° |
| 2026-04-22 20:17 | 39.71843 | 33.36670 | 36950 ft | 496 kts | 135° |
| 2026-04-22 20:18 | 39.67450 | 33.43557 | 36960 ft | 495 kts | 135° |
| 2026-04-22 20:18 | 39.66273 | 33.45403 | 36956 ft | 495 kts | 135° |
| 2026-04-22 20:19 | 39.61873 | 33.52295 | 36956 ft | 497 kts | 135° |
| 2026-04-22 20:19 | 39.57454 | 33.59197 | 36954 ft | 498 kts | 134° |
| 2026-04-22 20:20 | 39.53112 | 33.66209 | 36949 ft | 499 kts | 133° |
| 2026-04-22 20:20 | 39.49028 | 33.72874 | 36941 ft | 498 kts | 133° |
| 2026-04-22 20:21 | 39.44704 | 33.79864 | 36946 ft | 496 kts | 134° |
| 2026-04-22 20:21 | 39.40363 | 33.86709 | 36946 ft | 494 kts | 135° |
| 2026-04-22 20:22 | 39.35966 | 33.93537 | 36956 ft | 493 kts | 135° |
| 2026-04-22 20:22 | 39.31581 | 34.00335 | 36946 ft | 491 kts | 135° |
| 2026-04-22 20:23 | 39.27211 | 34.07109 | 36949 ft | 490 kts | 135° |
| 2026-04-22 20:23 | 39.22962 | 34.13686 | 36940 ft | 489 kts | 135° |
| 2026-04-22 20:24 | 39.18599 | 34.20429 | 36947 ft | 490 kts | 135° |
| 2026-04-22 20:24 | 39.14690 | 34.26457 | 36950 ft | 490 kts | 135° |
| 2026-04-22 20:25 | 39.10341 | 34.33151 | 36965 ft | 490 kts | 135° |
| 2026-04-22 20:25 | 39.05954 | 34.39889 | 36968 ft | 491 kts | 135° |
| 2026-04-22 20:26 | 39.01556 | 34.46629 | 36966 ft | 492 kts | 135° |
| 2026-04-22 20:26 | 38.97147 | 34.53372 | 36975 ft | 493 kts | 135° |
| 2026-04-22 20:27 | 38.92718 | 34.60131 | 36951 ft | 494 kts | 135° |
| 2026-04-22 20:27 | 38.88289 | 34.66876 | 36965 ft | 494 kts | 135° |
| 2026-04-22 20:28 | 38.86087 | 34.70224 | 36947 ft | 494 kts | 135° |
| 2026-04-22 20:29 | 38.83605 | 34.73993 | 36922 ft | 494 kts | 134° |
| 2026-04-22 20:29 | 38.79168 | 34.80722 | 36942 ft | 494 kts | 134° |
| 2026-04-22 20:30 | 38.74726 | 34.87443 | 36948 ft | 494 kts | 135° |
| 2026-04-22 20:30 | 38.70310 | 34.94110 | 36955 ft | 494 kts | 135° |
| 2026-04-22 20:31 | 38.65852 | 35.00827 | 36938 ft | 494 kts | 134° |
| 2026-04-22 20:31 | 38.65104 | 35.01953 | 36950 ft | 493 kts | 134° |
| 2026-04-22 20:32 | 38.63900 | 35.03764 | 36950 ft | 493 kts | 134° |
| 2026-04-22 20:32 | 38.59451 | 35.10448 | 36950 ft | 493 kts | 134° |
| 2026-04-22 20:33 | 38.55036 | 35.17066 | 36952 ft | 492 kts | 135° |
| 2026-04-22 20:33 | 38.51313 | 35.22636 | 36954 ft | 492 kts | 135° |
| 2026-04-22 20:34 | 38.50865 | 35.23306 | 36958 ft | 492 kts | 135° |
| 2026-04-22 20:34 | 38.46575 | 35.29710 | 36953 ft | 491 kts | 135° |
| 2026-04-22 20:35 | 38.42136 | 35.36326 | 36961 ft | 490 kts | 134° |
| 2026-04-22 20:35 | 38.37705 | 35.42914 | 36965 ft | 489 kts | 135° |
| 2026-04-22 20:36 | 38.33269 | 35.49496 | 36985 ft | 489 kts | 135° |
| 2026-04-22 20:36 | 38.28832 | 35.56066 | 36997 ft | 488 kts | 135° |
| 2026-04-22 20:37 | 38.24424 | 35.62580 | 36980 ft | 488 kts | 135° |
| 2026-04-22 20:37 | 38.19989 | 35.69121 | 36999 ft | 488 kts | 135° |
| 2026-04-22 20:38 | 38.15550 | 35.75655 | 36999 ft | 488 kts | 135° |
| 2026-04-22 20:38 | 38.11111 | 35.82174 | 37027 ft | 488 kts | 135° |
| 2026-04-22 20:38 | 38.08880 | 35.85445 | 36597 ft | 494 kts | 135° |
| 2026-04-22 20:39 | 38.06633 | 35.88735 | 36035 ft | 491 kts | 134° |
| 2026-04-22 20:39 | 38.04429 | 35.91961 | 35427 ft | 490 kts | 134° |
| 2026-04-22 20:39 | 38.02189 | 35.95236 | 34772 ft | 490 kts | 134° |
| 2026-04-22 20:39 | 37.99961 | 35.98493 | 34158 ft | 488 kts | 134° |
| 2026-04-22 20:40 | 37.97732 | 36.01748 | 33500 ft | 487 kts | 134° |
| 2026-04-22 20:40 | 37.95497 | 36.05005 | 32837 ft | 492 kts | 134° |
| 2026-04-22 20:40 | 37.93238 | 36.08293 | 32181 ft | 496 kts | 134° |
| 2026-04-22 20:40 | 37.90973 | 36.11588 | 31550 ft | 496 kts | 134° |
| 2026-04-22 20:41 | 37.88705 | 36.14884 | 30919 ft | 496 kts | 134° |
| 2026-04-22 20:41 | 37.86436 | 36.18178 | 30310 ft | 496 kts | 134° |
| 2026-04-22 20:41 | 37.84169 | 36.21467 | 29633 ft | 496 kts | 134° |
| 2026-04-22 20:41 | 37.81898 | 36.24758 | 28945 ft | 498 kts | 134° |
| 2026-04-22 20:42 | 37.79612 | 36.28066 | 28231 ft | 499 kts | 134° |
| 2026-04-22 20:42 | 37.77324 | 36.31373 | 27580 ft | 500 kts | 134° |
| 2026-04-22 20:42 | 37.75032 | 36.34684 | 26916 ft | 500 kts | 134° |
| 2026-04-22 20:42 | 37.72735 | 36.37999 | 26302 ft | 502 kts | 134° |
| 2026-04-22 20:43 | 37.70456 | 36.41284 | 25671 ft | 503 kts | 134° |
| 2026-04-22 20:43 | 37.68144 | 36.44613 | 25066 ft | 505 kts | 134° |
| 2026-04-22 20:43 | 37.65823 | 36.47951 | 24457 ft | 504 kts | 134° |
| 2026-04-22 20:43 | 37.63524 | 36.51259 | 23863 ft | 498 kts | 134° |
| 2026-04-22 20:44 | 37.61247 | 36.54534 | 23214 ft | 494 kts | 134° |
| 2026-04-22 20:44 | 37.58986 | 36.57785 | 22546 ft | 489 kts | 134° |
| 2026-04-22 20:44 | 37.56754 | 36.60983 | 21869 ft | 483 kts | 134° |
| 2026-04-22 20:44 | 37.54540 | 36.64148 | 21223 ft | 478 kts | 134° |
| 2026-04-22 20:45 | 37.52372 | 36.67242 | 20613 ft | 476 kts | 134° |
| 2026-04-22 20:45 | 37.50188 | 36.70359 | 19989 ft | 473 kts | 134° |
| 2026-04-22 20:45 | 37.48023 | 36.73449 | 19374 ft | 467 kts | 134° |
| 2026-04-22 20:45 | 37.45885 | 36.76497 | 18770 ft | 461 kts | 134° |
| 2026-04-22 20:46 | 37.41666 | 36.82507 | 17506 ft | 454 kts | 134° |
| 2026-04-22 20:46 | 37.39586 | 36.85464 | 16852 ft | 448 kts | 134° |
| 2026-04-22 20:46 | 37.37533 | 36.88380 | 16215 ft | 442 kts | 134° |
| 2026-04-22 20:47 | 37.35503 | 36.91262 | 15593 ft | 437 kts | 134° |
| 2026-04-22 20:47 | 37.33491 | 36.94114 | 14982 ft | 433 kts | 133° |
| 2026-04-22 20:47 | 37.31503 | 36.96930 | 14384 ft | 428 kts | 133° |
| 2026-04-22 20:47 | 37.29539 | 36.99711 | 13776 ft | 423 kts | 133° |
| 2026-04-22 20:48 | 37.27601 | 37.02451 | 13118 ft | 417 kts | 133° |
| 2026-04-22 20:48 | 37.25680 | 37.05167 | 12465 ft | 413 kts | 133° |
| 2026-04-22 20:48 | 37.23806 | 37.07814 | 11841 ft | 409 kts | 133° |
| 2026-04-22 20:48 | 37.21927 | 37.10465 | 11219 ft | 405 kts | 133° |
| 2026-04-22 20:49 | 37.20064 | 37.13092 | 10610 ft | 400 kts | 133° |
| 2026-04-22 20:49 | 37.18223 | 37.15686 | 10003 ft | 396 kts | 133° |
| 2026-04-22 20:49 | 37.16400 | 37.18252 | 9360 ft | 392 kts | 133° |
| 2026-04-22 20:49 | 37.14596 | 37.20791 | 8709 ft | 388 kts | 133° |
| 2026-04-22 20:50 | 37.12805 | 37.23308 | 8126 ft | 384 kts | 133° |
| 2026-04-22 20:50 | 37.11029 | 37.25784 | 7635 ft | 381 kts | 134° |
| 2026-04-22 20:50 | 37.09245 | 37.28219 | 7144 ft | 379 kts | 134° |
| 2026-04-22 20:50 | 37.07460 | 37.30634 | 6659 ft | 375 kts | 134° |
| 2026-04-22 20:51 | 37.05735 | 37.32969 | 6320 ft | 352 kts | 134° |
| 2026-04-22 20:51 | 37.04134 | 37.35141 | 6100 ft | 326 kts | 134° |
| 2026-04-22 20:51 | 37.02649 | 37.37156 | 6024 ft | 303 kts | 134° |
| 2026-04-22 20:51 | 37.01277 | 37.39016 | 6005 ft | 279 kts | 134° |
| 2026-04-22 20:52 | 37.00011 | 37.40733 | 5994 ft | 258 kts | 135° |
| 2026-04-22 20:52 | 36.98807 | 37.42364 | 6028 ft | 255 kts | 135° |
| 2026-04-22 20:52 | 36.97602 | 37.43992 | 6019 ft | 254 kts | 135° |
| 2026-04-22 20:52 | 36.96417 | 37.45594 | 6021 ft | 253 kts | 135° |
| 2026-04-22 20:53 | 36.95216 | 37.47220 | 6036 ft | 257 kts | 134° |
| 2026-04-22 20:53 | 36.94094 | 37.48950 | 6036 ft | 252 kts | 129° |
| 2026-04-22 20:53 | 36.93072 | 37.50697 | 5876 ft | 249 kts | 128° |
| 2026-04-22 20:53 | 36.92055 | 37.52446 | 5615 ft | 247 kts | 128° |
| 2026-04-22 20:54 | 36.91045 | 37.54165 | 5355 ft | 244 kts | 129° |
| 2026-04-22 20:54 | 36.90043 | 37.55855 | 5088 ft | 240 kts | 129° |
| 2026-04-22 20:54 | 36.89046 | 37.57527 | 4859 ft | 239 kts | 129° |
| 2026-04-22 20:54 | 36.88059 | 37.59177 | 4601 ft | 231 kts | 129° |
| 2026-04-22 20:55 | 36.87125 | 37.60743 | 4349 ft | 219 kts | 127° |
| 2026-04-22 20:55 | 36.86622 | 37.62458 | 4086 ft | 209 kts | 89° |
| 2026-04-22 20:55 | 36.87042 | 37.64167 | 4062 ft | 210 kts | 55° |
| 2026-04-22 20:55 | 36.88129 | 37.65318 | 4022 ft | 204 kts | 20° |
| 2026-04-22 20:56 | 36.89502 | 37.65514 | 4022 ft | 198 kts | 346° |
| 2026-04-22 20:56 | 36.90697 | 37.64749 | 4013 ft | 193 kts | 310° |
| 2026-04-22 20:56 | 36.91288 | 37.63302 | 4047 ft | 191 kts | 288° |
| 2026-04-22 20:56 | 36.91788 | 37.61751 | 4017 ft | 190 kts | 291° |
| 2026-04-22 20:57 | 36.92172 | 37.60246 | 3998 ft | 170 kts | 283° |
| 2026-04-22 20:57 | 36.92451 | 37.58869 | 3792 ft | 156 kts | 284° |
| 2026-04-22 20:57 | 36.92726 | 37.57564 | 3595 ft | 154 kts | 284° |
| 2026-04-22 20:57 | 36.93000 | 37.56282 | 3390 ft | 151 kts | 284° |
| 2026-04-22 20:58 | 36.93271 | 37.55021 | 3205 ft | 150 kts | 284° |
| 2026-04-22 20:58 | 36.93543 | 37.53752 | 2997 ft | 153 kts | 284° |
| 2026-04-22 20:58 | 36.93817 | 37.52479 | 2780 ft | 150 kts | 285° |
| 2026-04-22 20:58 | 36.94090 | 37.51194 | 2551 ft | 157 kts | 284° |
| 2026-04-22 20:59 | 36.94372 | 37.49884 | 2336 ft | 152 kts | 286° |
| 2026-04-22 20:59 | 36.94652 | 37.48616 | 2225 ft | 143 kts | 287° |
| 2026-04-22 20:59 | 36.94846 | 37.47669 | 2224 ft | 82 kts | 284° |
| 2026-04-22 20:59 | 36.94941 | 37.47245 | 2226 ft | 7 kts | 277° |
| 2026-04-22 21:00 | 36.94945 | 37.47201 | 2221 ft | 9 kts | 268° |
| 2026-04-22 21:00 | 36.94911 | 37.47139 | 2224 ft | 10 kts | 210° |
| 2026-04-22 21:00 | 36.94845 | 37.47117 | 2222 ft | 10 kts | 191° |
| 2026-04-22 21:00 | 36.94795 | 37.47151 | 2222 ft | 10 kts | 106° |
| 2026-04-22 21:01 | 36.94776 | 37.47239 | 2223 ft | 14 kts | 105° |
| 2026-04-22 21:01 | 36.94744 | 37.47383 | 2223 ft | 18 kts | 105° |
| 2026-04-22 21:01 | 36.94672 | 37.47434 | 2222 ft | 7 kts | 177° |
| 2026-04-22 21:01 | 36.94623 | 37.47438 | 2222 ft | 7 kts | 199° |
| 2026-04-22 21:02 | 36.94599 | 37.47428 | 2224 ft | 0 kts | 196° |